Time;durP1;ratioP1;P1;durP2;ratioP2;P2;SDS_P1;SDS_P2;PMS_P1;PMS_P2;Temp;Humidity;BMP_temperature;BMP_pressure;BME280_temperature;BME280_humidity;BME280_pressure;Samples;Min_cycle;Max_cycle;Signal;HPM_P1;HPM_P2
2022/07/16 00:01:23;;;;;;;5.83;5.07;;;22.60;49.50;;;;;;5049876;28;20184;-67
2022/07/16 00:03:56;;;;;;;5.47;4.97;;;22.60;49.70;;;;;;5031836;28;20176;-67
2022/07/16 00:06:22;;;;;;;7.20;5.17;;;22.50;49.60;;;;;;5050772;28;20865;-67
2022/07/16 00:08:48;;;;;;;5.43;4.73;;;22.50;49.60;;;;;;5028259;28;20484;-67
2022/07/16 00:11:14;;;;;;;6.33;4.90;;;22.50;49.70;;;;;;5047705;28;20499;-67
2022/07/16 00:13:40;;;;;;;5.87;4.90;;;22.50;49.70;;;;;;5033431;28;20898;-67
2022/07/16 00:16:07;;;;;;;5.70;4.87;;;22.50;49.90;;;;;;5051605;28;20194;-67
2022/07/16 00:21:17;;;;;;;6.37;4.63;;;22.40;50.00;;;;;;5051061;28;20482;-67
2022/07/16 00:23:43;;;;;;;7.63;5.30;;;22.40;50.10;;;;;;5050637;28;20994;-67
2022/07/16 00:26:08;;;;;;;7.50;5.13;;;22.30;50.20;;;;;;5046603;28;20825;-67
2022/07/16 00:28:34;;;;;;;6.77;5.13;;;22.30;50.90;;;;;;5053056;28;20203;-67
2022/07/16 00:31:00;;;;;;;6.13;4.97;;;22.30;50.30;;;;;;5048068;28;20194;-67
2022/07/16 00:33:26;;;;;;;9.37;5.70;;;22.30;50.30;;;;;;5048083;28;20452;-67
2022/07/16 00:35:51;;;;;;;5.93;4.47;;;22.20;50.30;;;;;;5054556;28;20421;-67
2022/07/16 00:38:17;;;;;;;7.30;5.13;;;22.20;50.30;;;;;;5038392;28;20245;-68
2022/07/16 00:40:42;;;;;;;6.57;4.93;;;22.20;50.30;;;;;;5049631;28;20193;-68
2022/07/16 00:43:12;;;;;;;5.40;4.90;;;22.20;50.40;;;;;;5037843;28;20183;-68
2022/07/16 00:45:38;;;;;;;5.97;4.80;;;22.10;50.60;;;;;;5052461;28;20187;-68
2022/07/16 00:48:05;;;;;;;6.43;5.10;;;22.00;50.60;;;;;;5052732;28;20445;-68
2022/07/16 00:50:31;;;;;;;7.10;4.97;;;22.00;50.60;;;;;;5061541;28;20433;-68
2022/07/16 00:52:58;;;;;;;7.87;5.00;;;22.00;50.80;;;;;;5052394;28;20839;-68
2022/07/16 00:55:24;;;;;;;6.47;5.17;;;22.00;50.80;;;;;;5054757;28;20438;-68
2022/07/16 00:57:49;;;;;;;6.60;4.70;;;21.90;50.80;;;;;;5051175;28;20429;-68
2022/07/16 01:00:15;;;;;;;6.07;5.17;;;21.90;50.90;;;;;;5053047;28;20226;-68
2022/07/16 01:02:41;;;;;;;6.90;4.80;;;21.90;51.00;;;;;;5053335;28;20191;-68
2022/07/16 01:05:07;;;;;;;8.90;5.43;;;21.80;51.30;;;;;;5057426;28;20685;-68
2022/07/16 01:07:33;;;;;;;5.70;4.83;;;21.80;51.20;;;;;;5051266;28;20183;-68
2022/07/16 01:10:01;;;;;;;5.63;4.60;;;21.80;51.20;;;;;;5054387;28;20953;-68
2022/07/16 01:12:27;;;;;;;6.53;5.70;;;21.80;51.00;;;;;;5034499;28;21002;-68
2022/07/16 01:14:53;;;;;;;6.77;5.50;;;21.80;51.00;;;;;;5050179;28;20442;-67
2022/07/16 01:17:18;;;;;;;10.10;5.03;;;21.80;51.00;;;;;;5050772;28;20954;-68
2022/07/16 01:19:44;;;;;;;5.17;4.60;;;21.70;51.20;;;;;;5049751;28;20196;-68
2022/07/16 01:22:17;;;;;;;6.63;5.20;;;21.70;51.30;;;;;;5049477;28;20180;-68
2022/07/16 01:24:42;;;;;;;5.77;4.70;;;21.70;51.10;;;;;;5050372;28;20324;-68
2022/07/16 01:27:08;;;;;;;5.30;4.70;;;21.70;51.10;;;;;;5055124;28;20618;-68
2022/07/16 01:29:33;;;;;;;7.13;4.97;;;21.70;51.30;;;;;;5033461;28;20202;-67
2022/07/16 01:31:59;;;;;;;6.10;4.43;;;21.70;51.30;;;;;;5053077;28;20204;-68
2022/07/16 01:34:25;;;;;;;6.77;5.47;;;21.70;51.40;;;;;;5052275;28;20640;-68
2022/07/16 01:37:02;;;;;;;8.13;4.50;;;21.70;51.60;;;;;;5018753;28;20199;-68
2022/07/16 01:39:29;;;;;;;9.67;4.53;;;21.70;51.60;;;;;;5052072;28;20221;-68
2022/07/16 01:41:57;;;;;;;5.13;4.70;;;21.60;51.80;;;;;;5050088;28;20426;-68
2022/07/16 01:44:24;;;;;;;5.00;4.53;;;21.60;51.90;;;;;;5052655;28;20440;-68
2022/07/16 01:46:51;;;;;;;6.93;4.80;;;21.60;51.80;;;;;;5033205;28;20430;-68
2022/07/16 01:49:17;;;;;;;5.47;4.80;;;21.60;52.30;;;;;;5050682;28;20469;-68
2022/07/16 01:51:42;;;;;;;8.07;5.20;;;21.60;51.60;;;;;;5054226;28;20457;-68
2022/07/16 01:54:08;;;;;;;6.13;5.53;;;21.50;51.70;;;;;;5051867;28;20163;-68
2022/07/16 01:56:34;;;;;;;6.80;5.00;;;21.50;51.80;;;;;;5051874;28;20175;-68
2022/07/16 01:58:59;;;;;;;5.93;4.93;;;21.50;51.60;;;;;;5053372;28;20191;-68
2022/07/16 02:01:25;;;;;;;5.63;4.87;;;21.50;51.70;;;;;;5049784;28;20234;-68
2022/07/16 02:03:50;;;;;;;7.23;4.80;;;21.50;51.80;;;;;;5047286;28;20222;-68
2022/07/16 02:06:16;;;;;;;7.17;4.93;;;21.50;52.00;;;;;;5048488;28;20191;-68
2022/07/16 02:08:42;;;;;;;8.40;5.40;;;21.40;51.90;;;;;;5053626;28;20230;-68
2022/07/16 02:11:07;;;;;;;6.80;5.70;;;21.40;52.10;;;;;;5050824;28;20184;-68
2022/07/16 02:13:33;;;;;;;6.87;5.67;;;21.40;52.20;;;;;;5053609;28;20378;-67
2022/07/16 02:16:00;;;;;;;6.87;5.67;;;21.30;52.40;;;;;;5050620;28;20186;-67
2022/07/16 02:18:25;;;;;;;6.97;5.17;;;21.30;52.40;;;;;;5050090;28;20206;-67
2022/07/16 02:20:51;;;;;;;7.97;5.50;;;21.30;52.20;;;;;;5034630;28;20905;-68
2022/07/16 02:23:17;;;;;;;8.30;5.70;;;21.30;52.10;;;;;;5052806;28;20584;-67
2022/07/16 02:25:42;;;;;;;12.53;5.50;;;21.20;52.20;;;;;;5050439;28;20457;-67
2022/07/16 02:28:08;;;;;;;7.77;5.27;;;21.20;52.50;;;;;;5051436;28;20183;-68
2022/07/16 02:30:40;;;;;;;6.50;5.13;;;21.20;52.80;;;;;;5035112;28;20179;-68
2022/07/16 02:33:08;;;;;;;7.90;5.70;;;21.10;53.00;;;;;;5049673;28;20458;-67
2022/07/16 02:35:34;;;;;;;6.53;5.43;;;21.10;53.30;;;;;;5051211;28;20430;-67
2022/07/16 02:38:00;;;;;;;6.80;5.10;;;21.10;53.50;;;;;;5051190;28;20430;-68
2022/07/16 02:40:27;;;;;;;7.13;5.30;;;21.00;53.80;;;;;;5048840;28;20865;-67
2022/07/16 02:42:53;;;;;;;6.00;5.03;;;21.00;54.10;;;;;;5049395;28;20176;-67
2022/07/16 02:45:19;;;;;;;6.23;5.50;;;21.00;55.60;;;;;;5051002;28;20434;-67
2022/07/16 02:47:44;;;;;;;6.10;5.50;;;21.00;56.10;;;;;;5052397;28;20918;-68
2022/07/16 02:50:10;;;;;;;5.73;5.03;;;20.90;57.00;;;;;;5056247;28;20214;-67
2022/07/16 02:52:36;;;;;;;8.33;4.73;;;21.00;57.30;;;;;;5029697;28;20698;-68
2022/07/16 02:55:06;;;;;;;5.90;5.27;;;20.90;57.40;;;;;;5049788;28;20188;-67
2022/07/16 02:57:31;;;;;;;6.33;5.37;;;20.90;57.00;;;;;;5037783;28;20180;-67
2022/07/16 02:59:57;;;;;;;5.97;4.67;;;20.80;57.20;;;;;;5050663;28;20457;-67
2022/07/16 03:02:22;;;;;;;7.43;4.80;;;20.80;57.60;;;;;;5032774;28;20321;-68
2022/07/16 03:04:48;;;;;;;6.20;5.60;;;20.80;57.90;;;;;;5048505;28;20210;-68
2022/07/16 03:07:14;;;;;;;5.60;4.60;;;20.80;58.10;;;;;;5048245;28;20843;-67
2022/07/16 03:09:40;;;;;;;8.60;4.73;;;20.80;58.30;;;;;;5053971;28;20450;-67
2022/07/16 03:12:05;;;;;;;5.90;4.90;;;20.80;58.40;;;;;;5052385;28;20212;-67
2022/07/16 03:14:31;;;;;;;10.30;5.40;;;20.70;58.60;;;;;;5050457;28;20928;-68
2022/07/16 03:16:57;;;;;;;9.73;5.03;;;20.50;59.20;;;;;;5051924;28;20179;-67
2022/07/16 03:19:22;;;;;;;6.80;5.40;;;20.40;59.50;;;;;;5050266;28;20231;-67
2022/07/16 03:21:48;;;;;;;6.60;4.97;;;20.50;59.60;;;;;;5049894;28;20559;-67
2022/07/16 03:24:13;;;;;;;6.57;5.80;;;20.40;59.60;;;;;;5047001;28;20190;-67
2022/07/16 03:26:39;;;;;;;6.87;5.17;;;20.50;59.50;;;;;;5050904;28;20187;-68
2022/07/16 03:29:04;;;;;;;7.23;5.60;;;20.50;59.40;;;;;;5048554;28;20207;-67
2022/07/16 03:31:30;;;;;;;6.83;5.13;;;20.50;60.00;;;;;;5051798;28;20226;-67
2022/07/16 03:33:55;;;;;;;6.23;5.00;;;20.50;59.50;;;;;;5050070;28;20176;-68
2022/07/16 03:36:22;;;;;;;6.63;5.40;;;20.40;59.50;;;;;;5057371;28;20180;-67
2022/07/16 03:39:07;;;;;;;5.70;5.03;;;20.50;59.50;;;;;;5032387;28;20220;-68
2022/07/16 03:41:35;;;;;;;6.40;5.10;;;20.50;59.50;;;;;;5050226;28;20427;-67
2022/07/16 03:44:02;;;;;;;6.73;5.63;;;20.50;59.50;;;;;;5031221;28;20434;-68
2022/07/16 03:46:29;;;;;;;5.90;5.07;;;20.40;60.00;;;;;;5051957;28;20872;-67
2022/07/16 03:48:54;;;;;;;5.73;5.23;;;20.40;59.50;;;;;;5049254;28;20539;-68
2022/07/16 03:51:20;;;;;;;6.30;5.20;;;20.30;59.60;;;;;;5050792;28;21241;-68
2022/07/16 03:53:46;;;;;;;7.50;5.40;;;20.30;59.70;;;;;;5055445;28;20438;-68
2022/07/16 03:56:12;;;;;;;6.70;6.00;;;20.30;59.70;;;;;;5032549;28;20566;-67
2022/07/16 03:58:37;;;;;;;6.60;5.90;;;20.40;59.80;;;;;;5048246;28;20576;-67
2022/07/16 04:01:03;;;;;;;7.70;5.70;;;20.40;59.70;;;;;;5052082;28;20191;-67
2022/07/16 04:03:28;;;;;;;5.70;5.20;;;20.30;59.60;;;;;;5052261;28;20548;-67
2022/07/16 04:05:54;;;;;;;5.30;4.80;;;20.30;59.50;;;;;;5028736;28;20583;-67
2022/07/16 04:08:20;;;;;;;9.23;5.37;;;20.30;59.70;;;;;;5052421;28;20278;-67
2022/07/16 04:10:46;;;;;;;5.77;5.17;;;20.30;59.60;;;;;;5052180;28;20194;-67
2022/07/16 04:13:11;;;;;;;6.47;5.30;;;20.10;59.80;;;;;;5056297;28;20217;-67
2022/07/16 04:15:37;;;;;;;6.23;5.47;;;20.20;59.90;;;;;;5051281;28;20245;-67
2022/07/16 04:18:03;;;;;;;5.80;5.27;;;20.10;59.70;;;;;;5053714;28;20176;-67
2022/07/16 04:20:28;;;;;;;7.00;6.40;;;20.10;59.80;;;;;;5054964;28;20208;-67
2022/07/16 04:22:54;;;;;;;5.77;4.10;;;20.10;59.80;;;;;;5054813;28;20195;-67
2022/07/16 04:25:20;;;;;;;6.90;5.47;;;20.10;59.70;;;;;;5051971;28;20623;-68
2022/07/16 04:27:46;;;;;;;8.67;7.60;;;20.10;59.20;;;;;;5052405;28;20257;-67
2022/07/16 04:30:12;;;;;;;5.60;4.77;;;20.10;58.70;;;;;;5051993;28;20468;-67
2022/07/16 04:32:40;;;;;;;6.90;4.83;;;20.00;58.90;;;;;;5051504;28;20497;-67
2022/07/16 04:35:08;;;;;;;5.93;5.30;;;19.90;59.30;;;;;;5056112;28;20531;-67
2022/07/16 04:37:34;;;;;;;4.93;4.53;;;20.00;59.20;;;;;;5052823;28;20852;-68
2022/07/16 04:40:00;;;;;;;5.87;5.27;;;20.00;59.10;;;;;;5057148;28;20459;-67
2022/07/16 04:42:26;;;;;;;6.00;5.23;;;20.00;59.10;;;;;;5054817;28;20469;-68
2022/07/16 04:44:51;;;;;;;5.87;5.37;;;20.00;59.20;;;;;;5048806;28;20434;-68
2022/07/16 04:47:17;;;;;;;5.97;5.37;;;20.00;59.60;;;;;;5054248;28;20703;-68
2022/07/16 04:49:42;;;;;;;6.60;4.90;;;20.00;59.90;;;;;;5057258;28;20870;-67
2022/07/16 04:52:08;;;;;;;6.10;5.50;;;19.90;60.00;;;;;;5053471;28;20207;-68
2022/07/16 04:54:34;;;;;;;6.43;5.70;;;19.90;59.70;;;;;;5051374;28;20180;-67
2022/07/16 04:56:59;;;;;;;5.67;5.10;;;20.00;59.70;;;;;;5053762;28;20903;-67
2022/07/16 04:59:25;;;;;;;5.57;4.90;;;20.00;59.40;;;;;;5050065;28;20829;-68
2022/07/16 05:01:51;;;;;;;9.27;5.20;;;20.00;59.10;;;;;;5033828;28;20572;-67
2022/07/16 05:04:17;;;;;;;6.10;4.60;;;20.10;59.00;;;;;;5055662;28;20448;-67
2022/07/16 05:06:43;;;;;;;9.77;5.23;;;20.10;59.00;;;;;;5053491;28;20184;-67
2022/07/16 05:09:09;;;;;;;6.83;5.20;;;20.00;59.20;;;;;;5054910;28;20228;-67
2022/07/16 05:11:35;;;;;;;6.60;5.37;;;20.00;59.20;;;;;;5053906;28;20453;-67
2022/07/16 05:14:01;;;;;;;6.70;5.03;;;20.10;59.00;;;;;;5054071;28;20433;-67
2022/07/16 05:16:26;;;;;;;7.00;5.40;;;20.10;58.40;;;;;;5055367;28;20658;-67
2022/07/16 05:18:52;;;;;;;7.03;4.87;;;20.10;58.30;;;;;;5054603;28;20199;-67
2022/07/16 05:21:18;;;;;;;6.00;5.03;;;20.10;58.30;;;;;;5052919;28;20194;-67
2022/07/16 05:23:43;;;;;;;5.50;4.63;;;20.20;58.50;;;;;;5055431;28;20226;-68
2022/07/16 05:26:09;;;;;;;7.73;4.60;;;20.20;58.40;;;;;;5054041;28;20198;-67
2022/07/16 05:28:35;;;;;;;5.47;4.67;;;20.20;58.70;;;;;;5050904;28;20203;-67
2022/07/16 05:31:01;;;;;;;5.00;4.43;;;20.30;58.40;;;;;;5052255;28;20195;-67
2022/07/16 05:33:26;;;;;;;13.80;4.80;;;20.30;58.70;;;;;;5047577;28;20457;-67
2022/07/16 05:35:52;;;;;;;7.00;5.20;;;20.30;59.20;;;;;;5052642;28;20511;-67
2022/07/16 05:38:18;;;;;;;5.80;4.30;;;20.30;59.00;;;;;;5053457;28;20222;-67
2022/07/16 05:40:43;;;;;;;9.93;5.70;;;20.40;58.80;;;;;;5050624;28;20187;-67
2022/07/16 05:43:10;;;;;;;5.07;4.57;;;20.40;58.60;;;;;;5052413;28;20910;-68
2022/07/16 05:45:35;;;;;;;7.83;4.90;;;20.40;58.30;;;;;;5056486;28;20184;-69
2022/07/16 05:48:01;;;;;;;9.83;5.63;;;20.50;58.20;;;;;;5052107;28;20426;-67
2022/07/16 05:50:27;;;;;;;5.23;4.37;;;20.50;58.40;;;;;;5052363;28;20337;-67
2022/07/16 05:52:52;;;;;;;4.43;3.97;;;20.60;57.80;;;;;;5050765;28;20230;-67
2022/07/16 05:55:18;;;;;;;7.90;4.53;;;20.60;57.30;;;;;;5051069;28;20449;-67
2022/07/16 05:57:43;;;;;;;6.73;4.33;;;20.60;56.90;;;;;;5052322;28;20186;-68
2022/07/16 06:00:11;;;;;;;5.60;5.00;;;20.70;56.70;;;;;;5052665;28;20195;-68
2022/07/16 06:02:38;;;;;;;6.00;4.03;;;20.70;56.40;;;;;;5048908;28;20180;-68
2022/07/16 06:05:04;;;;;;;6.13;4.43;;;20.70;55.90;;;;;;5052327;28;20464;-67
2022/07/16 06:07:29;;;;;;;4.83;4.10;;;20.80;56.00;;;;;;5038204;28;21129;-68
2022/07/16 06:09:55;;;;;;;5.00;4.10;;;20.70;56.20;;;;;;5050191;28;20702;-68
2022/07/16 06:12:21;;;;;;;4.50;3.80;;;20.80;56.30;;;;;;5053636;28;20233;-68
2022/07/16 06:14:46;;;;;;;10.30;4.27;;;20.80;56.00;;;;;;5048214;28;20184;-68
2022/07/16 06:17:13;;;;;;;6.73;4.83;;;20.80;55.70;;;;;;5049722;28;20647;-68
2022/07/16 06:19:43;;;;;;;5.27;3.80;;;20.90;55.70;;;;;;5047523;28;20195;-68
2022/07/16 06:22:10;;;;;;;5.80;4.70;;;20.90;55.80;;;;;;5050074;28;20478;-68
2022/07/16 06:24:36;;;;;;;5.37;3.80;;;20.90;55.70;;;;;;5048728;28;20910;-68
2022/07/16 06:27:03;;;;;;;5.67;4.40;;;20.90;55.80;;;;;;5052306;28;20446;-68
2022/07/16 06:29:28;;;;;;;5.93;4.53;;;20.90;55.70;;;;;;5031164;28;21518;-68
2022/07/16 06:31:54;;;;;;;4.27;3.87;;;21.00;55.80;;;;;;5050325;28;20462;-68
2022/07/16 06:34:20;;;;;;;4.97;4.00;;;21.00;55.50;;;;;;5051939;28;20207;-68
2022/07/16 06:36:45;;;;;;;4.90;4.50;;;21.10;55.90;;;;;;5054042;28;20183;-68
2022/07/16 06:39:11;;;;;;;5.00;4.10;;;21.10;55.70;;;;;;5034761;28;20207;-68
2022/07/16 06:41:37;;;;;;;4.60;3.60;;;21.20;55.50;;;;;;5053421;28;20270;-68
2022/07/16 06:44:04;;;;;;;5.87;4.30;;;21.20;56.10;;;;;;5049950;28;20534;-68
2022/07/16 06:46:30;;;;;;;5.13;4.10;;;21.20;55.60;;;;;;5055729;28;20421;-68
2022/07/16 06:48:55;;;;;;;8.30;4.07;;;21.20;55.60;;;;;;5046827;28;21018;-69
2022/07/16 06:51:21;;;;;;;5.67;3.90;;;21.30;56.10;;;;;;5047496;28;20172;-68
2022/07/16 06:53:47;;;;;;;4.40;4.00;;;21.40;55.30;;;;;;5051707;28;20215;-69
2022/07/16 06:56:13;;;;;;;6.77;3.80;;;21.40;55.10;;;;;;5056132;28;20179;-68
2022/07/16 06:58:39;;;;;;;7.17;4.00;;;21.50;55.10;;;;;;5050128;28;20894;-67
2022/07/16 07:01:04;;;;;;;4.43;4.03;;;21.50;55.30;;;;;;5052970;28;20210;-68
2022/07/16 07:03:30;;;;;;;4.33;3.93;;;21.60;54.90;;;;;;5053131;28;20944;-67
2022/07/16 07:05:57;;;;;;;4.83;3.90;;;21.60;54.70;;;;;;5050131;28;20194;-67
2022/07/16 07:08:22;;;;;;;5.27;4.07;;;21.70;54.60;;;;;;5053452;28;20256;-68
2022/07/16 07:10:48;;;;;;;5.87;4.03;;;21.70;54.60;;;;;;5056194;28;20929;-67
2022/07/16 07:13:13;;;;;;;4.20;3.87;;;21.80;54.70;;;;;;5050228;28;20218;-68
2022/07/16 07:15:39;;;;;;;4.57;3.97;;;21.80;54.70;;;;;;5051332;28;20665;-68
2022/07/16 07:18:05;;;;;;;3.87;3.47;;;21.90;54.40;;;;;;5055020;28;20997;-68
2022/07/16 07:20:30;;;;;;;4.67;4.27;;;22.00;53.90;;;;;;5049750;28;20779;-68
2022/07/16 07:22:56;;;;;;;5.90;4.03;;;22.10;53.80;;;;;;5054242;28;20194;-68
2022/07/16 07:25:22;;;;;;;6.83;4.00;;;22.10;54.00;;;;;;5046587;28;20321;-69
2022/07/16 07:27:47;;;;;;;5.63;4.07;;;22.20;54.00;;;;;;5053004;28;20194;-69
2022/07/16 07:30:13;;;;;;;4.77;3.30;;;22.20;54.20;;;;;;5052882;28;20294;-68
2022/07/16 07:32:39;;;;;;;3.50;3.20;;;22.20;53.70;;;;;;5052441;28;20200;-68
2022/07/16 07:35:06;;;;;;;4.23;3.60;;;22.40;52.70;;;;;;5056294;28;20176;-69
2022/07/16 07:37:31;;;;;;;3.90;3.40;;;22.40;53.00;;;;;;5051739;28;20175;-68
2022/07/16 07:39:57;;;;;;;6.87;4.43;;;22.40;53.00;;;;;;5048596;28;20445;-68
2022/07/16 07:42:23;;;;;;;7.63;6.00;;;22.40;52.80;;;;;;5055990;28;20188;-68
2022/07/16 07:44:48;;;;;;;5.80;4.17;;;22.40;53.10;;;;;;5050965;28;20199;-68
2022/07/16 07:47:14;;;;;;;5.00;4.03;;;22.50;53.10;;;;;;5047676;28;20202;-68
2022/07/16 07:49:40;;;;;;;8.77;4.57;;;22.50;53.10;;;;;;5047820;28;20710;-68
2022/07/16 07:52:07;;;;;;;3.90;3.53;;;22.50;53.10;;;;;;5052402;28;20276;-68
2022/07/16 07:54:32;;;;;;;4.53;3.63;;;22.60;53.10;;;;;;5046921;28;20176;-68
2022/07/16 07:56:58;;;;;;;5.00;3.97;;;22.60;52.60;;;;;;5040639;28;21094;-68
2022/07/16 07:59:23;;;;;;;7.30;4.87;;;22.80;52.60;;;;;;5046378;28;20195;-68
2022/07/16 08:01:49;;;;;;;6.47;4.60;;;22.80;52.40;;;;;;5046813;28;20175;-68
2022/07/16 08:04:14;;;;;;;4.83;4.33;;;22.90;52.50;;;;;;5048604;28;20188;-67
2022/07/16 08:06:40;;;;;;;4.50;3.97;;;22.90;52.70;;;;;;5049818;28;20184;-68
2022/07/16 08:09:06;;;;;;;4.93;3.67;;;22.90;52.60;;;;;;5050621;28;20214;-68
2022/07/16 08:11:31;;;;;;;4.43;3.87;;;23.00;52.60;;;;;;5052630;28;20204;-68
2022/07/16 08:13:57;;;;;;;4.10;3.17;;;23.10;51.40;;;;;;5052207;28;20207;-68
2022/07/16 08:16:23;;;;;;;8.47;4.80;;;23.10;51.00;;;;;;5038863;28;20190;-68
2022/07/16 08:18:48;;;;;;;3.70;3.03;;;23.20;50.90;;;;;;5054011;28;20751;-69
2022/07/16 08:21:14;;;;;;;9.77;6.90;;;23.20;50.90;;;;;;5050520;28;20313;-69
2022/07/16 08:26:24;;;;;;;6.03;4.30;;;23.30;50.30;;;;;;5051795;28;20671;-67
2022/07/16 08:28:50;;;;;;;5.37;3.27;;;23.40;49.90;;;;;;5049327;28;20450;-68
2022/07/16 08:31:15;;;;;;;7.43;3.00;;;23.40;50.10;;;;;;5049917;28;20441;-68
2022/07/16 08:33:41;;;;;;;3.37;3.07;;;23.40;50.00;;;;;;5048949;28;20244;-68
2022/07/16 08:36:07;;;;;;;3.37;2.93;;;23.50;50.30;;;;;;5049104;28;20236;-68
2022/07/16 08:38:32;;;;;;;4.00;3.10;;;23.50;49.60;;;;;;5035079;28;20563;-70
2022/07/16 08:40:58;;;;;;;5.40;3.70;;;23.60;49.30;;;;;;5047236;28;20263;-68
2022/07/16 08:43:24;;;;;;;3.70;2.80;;;23.50;49.70;;;;;;5031464;22;20769;-72
2022/07/16 08:45:50;;;;;;;5.30;3.50;;;23.60;49.60;;;;;;5030100;28;20401;-71
2022/07/16 08:48:16;;;;;;;3.50;3.13;;;23.60;49.80;;;;;;5033597;28;20181;-72
2022/07/16 08:50:43;;;;;;;4.27;3.63;;;23.70;49.10;;;;;;5032898;28;20435;-72
2022/07/16 08:53:09;;;;;;;3.53;3.00;;;23.70;49.20;;;;;;5005331;28;20468;-73
2022/07/16 08:55:39;;;;;;;4.30;3.73;;;23.80;49.70;;;;;;5007537;28;20454;-72
2022/07/16 08:58:06;;;;;;;4.83;4.07;;;23.70;49.90;;;;;;5026472;28;20211;-73
2022/07/16 09:00:33;;;;;;;4.27;2.80;;;23.70;49.80;;;;;;5023427;28;20447;-72
2022/07/16 09:02:59;;;;;;;5.33;3.20;;;23.80;49.70;;;;;;5024899;28;21174;-71
2022/07/16 09:05:26;;;;;;;7.03;3.37;;;23.70;49.90;;;;;;5025702;28;20434;-71
2022/07/16 09:07:53;;;;;;;5.50;3.70;;;23.80;50.00;;;;;;5024959;28;20446;-71
2022/07/16 09:10:19;;;;;;;4.00;3.07;;;23.90;50.30;;;;;;5026692;28;20478;-70
2022/07/16 09:12:47;;;;;;;6.33;3.90;;;23.90;50.00;;;;;;5024300;28;21016;-70
2022/07/16 09:15:45;;;;;;;5.53;3.00;;;24.00;49.90;;;;;;5020707;28;20442;-70
2022/07/16 09:18:16;;;;;;;4.50;3.03;;;24.00;49.70;;;;;;4960582;28;20447;-71
2022/07/16 09:20:46;;;;;;;3.50;2.77;;;24.10;49.60;;;;;;5005311;28;20957;-71
2022/07/16 09:23:25;;;;;;;4.20;2.90;;;24.00;49.50;;;;;;5023095;28;20952;-71
2022/07/16 09:25:57;;;;;;;6.90;3.40;;;24.10;49.90;;;;;;5022160;28;20439;-72
2022/07/16 09:28:25;;;;;;;4.97;3.30;;;24.00;50.20;;;;;;5024070;28;20472;-73
2022/07/16 09:30:51;;;;;;;4.40;2.50;;;24.00;50.30;;;;;;5024705;28;20944;-71
2022/07/16 09:33:20;;;;;;;6.63;3.40;;;24.10;50.40;;;;;;5006936;28;20479;-73
2022/07/16 09:35:47;;;;;;;4.60;3.20;;;24.20;50.20;;;;;;5006829;28;21248;-72
2022/07/16 09:38:13;;;;;;;4.10;3.20;;;24.10;49.60;;;;;;5021899;28;20936;-72
2022/07/16 09:40:42;;;;;;;3.90;3.40;;;24.20;49.20;;;;;;5023216;28;20467;-72
2022/07/16 09:43:13;;;;;;;3.83;2.90;;;24.20;49.10;;;;;;5022404;28;20957;-75
2022/07/16 09:45:40;;;;;;;3.40;3.00;;;24.20;49.40;;;;;;5024759;28;20533;-72
2022/07/16 09:48:20;;;;;;;6.93;3.30;;;24.10;49.60;;;;;;5022763;28;20426;-72
2022/07/16 09:50:46;;;;;;;6.83;3.20;;;24.20;50.00;;;;;;5024532;28;20422;-71
2022/07/16 09:53:20;;;;;;;8.10;2.90;;;24.20;49.30;;;;;;5024392;28;21014;-71
2022/07/16 09:56:07;;;;;;;5.40;3.13;;;24.10;49.40;;;;;;5024002;28;20200;-71
2022/07/16 09:58:34;;;;;;;4.17;3.20;;;24.20;49.80;;;;;;5021206;28;20926;-71
2022/07/16 10:01:00;;;;;;;4.37;3.13;;;24.40;49.60;;;;;;5005175;28;20442;-71
2022/07/16 10:03:28;;;;;;;6.33;2.87;;;24.40;49.20;;;;;;5022499;28;20466;-71
2022/07/16 10:05:54;;;;;;;4.57;2.93;;;24.40;49.50;;;;;;5021759;28;20800;-72
2022/07/16 10:08:21;;;;;;;3.60;3.00;;;24.50;49.00;;;;;;5000624;28;20435;-73
2022/07/16 10:10:47;;;;;;;4.10;3.20;;;24.50;47.10;;;;;;5002050;28;20465;-74
2022/07/16 10:13:14;;;;;;;3.30;2.93;;;24.50;47.60;;;;;;5004811;28;20474;-72
2022/07/16 10:15:41;;;;;;;4.57;3.03;;;24.70;47.50;;;;;;5018403;28;20452;-72
2022/07/16 10:18:42;;;;;;;4.30;3.00;;;24.80;47.30;;;;;;5004469;28;21044;-71
2022/07/16 10:21:20;;;;;;;2.97;2.67;;;24.70;45.20;;;;;;5023217;28;20987;-73
2022/07/16 10:24:02;;;;;;;3.27;2.70;;;24.70;44.30;;;;;;5021825;28;20541;-72
2022/07/16 10:26:28;;;;;;;3.23;2.83;;;24.60;44.60;;;;;;5022764;28;20438;-73
2022/07/16 10:28:54;;;;;;;2.70;2.50;;;24.70;43.70;;;;;;5006797;28;21040;-72
2022/07/16 10:31:38;;;;;;;4.30;3.43;;;24.70;42.10;;;;;;5025605;28;20427;-72
2022/07/16 10:34:16;;;;;;;3.40;2.80;;;24.90;42.90;;;;;;5023706;28;20443;-73
2022/07/16 10:36:53;;;;;;;3.90;2.50;;;25.00;42.90;;;;;;5022081;28;20456;-72
2022/07/16 10:39:21;;;;;;;2.90;2.60;;;25.00;42.50;;;;;;5023499;28;20878;-73
2022/07/16 10:41:55;;;;;;;3.97;2.80;;;25.00;42.40;;;;;;4998553;28;20451;-73
2022/07/16 10:44:23;;;;;;;4.40;2.83;;;25.00;43.10;;;;;;5020002;28;20797;-72
2022/07/16 10:46:53;;;;;;;6.40;2.70;;;25.20;43.80;;;;;;5018338;28;20869;-72
2022/07/16 10:49:19;;;;;;;2.70;2.50;;;25.30;43.10;;;;;;5001055;28;20440;-71
2022/07/16 10:51:58;;;;;;;3.80;2.70;;;25.40;43.10;;;;;;5005725;28;20458;-72
2022/07/16 10:54:31;;;;;;;3.77;2.47;;;25.50;42.10;;;;;;5022263;28;20706;-73
2022/07/16 10:56:59;;;;;;;2.70;2.47;;;25.40;42.60;;;;;;5022989;28;20941;-72
2022/07/16 10:59:28;;;;;;;4.03;3.60;;;25.50;42.90;;;;;;5023470;28;20438;-72
2022/07/16 11:01:56;;;;;;;4.00;3.60;;;25.50;43.60;;;;;;5022190;28;20458;-72
2022/07/16 11:04:28;;;;;;;3.30;2.60;;;25.60;44.40;;;;;;5021508;28;20434;-73
2022/07/16 11:06:54;;;;;;;4.47;2.90;;;25.50;44.60;;;;;;5022677;28;20426;-73
2022/07/16 11:09:40;;;;;;;3.17;2.87;;;25.50;45.10;;;;;;5019822;28;20810;-73
2022/07/16 11:12:21;;;;;;;3.30;2.73;;;25.60;44.60;;;;;;5018345;28;20521;-73
2022/07/16 11:14:48;;;;;;;3.00;2.77;;;25.70;44.50;;;;;;5020457;28;20466;-72
2022/07/16 11:17:16;;;;;;;5.10;2.80;;;25.90;44.70;;;;;;5021879;28;20446;-73
2022/07/16 11:19:44;;;;;;;3.83;3.00;;;25.80;44.80;;;;;;5022004;28;20447;-73
2022/07/16 11:22:11;;;;;;;5.23;3.27;;;25.90;45.50;;;;;;5022013;28;20485;-73
2022/07/16 11:24:44;;;;;;;3.57;3.13;;;25.80;45.20;;;;;;5022626;28;20455;-70
2022/07/16 11:27:09;;;;;;;3.20;2.30;;;25.90;45.00;;;;;;5022641;28;20427;-71
2022/07/16 11:29:35;;;;;;;3.27;2.73;;;26.00;44.80;;;;;;5022035;28;20901;-74
2022/07/16 11:32:01;;;;;;;3.90;3.07;;;26.20;44.60;;;;;;5021307;28;20216;-71
2022/07/16 11:34:32;;;;;;;3.40;2.83;;;26.30;44.50;;;;;;5024677;28;20215;-72
2022/07/16 11:36:58;;;;;;;3.40;3.10;;;26.30;44.90;;;;;;5021294;28;20173;-72
2022/07/16 11:39:25;;;;;;;3.13;2.70;;;26.40;45.10;;;;;;5020555;28;20637;-73
2022/07/16 11:41:54;;;;;;;4.10;2.90;;;26.60;44.60;;;;;;4999281;28;20654;-71
2022/07/16 11:44:22;;;;;;;3.63;2.70;;;26.70;44.40;;;;;;5003498;28;20932;-69
2022/07/16 11:46:52;;;;;;;5.83;3.33;;;26.80;44.40;;;;;;5022798;28;20423;-70
2022/07/16 11:49:32;;;;;;;3.03;2.73;;;26.80;44.40;;;;;;5017823;28;21194;-69
2022/07/16 11:52:00;;;;;;;3.90;3.13;;;27.00;43.50;;;;;;5017677;28;20924;-69
2022/07/16 11:54:27;;;;;;;3.43;3.13;;;27.10;43.50;;;;;;5003604;28;20426;-70
2022/07/16 11:56:54;;;;;;;3.83;3.53;;;27.40;43.10;;;;;;5018938;28;20429;-68
2022/07/16 11:59:28;;;;;;;3.83;2.80;;;27.60;42.70;;;;;;5002802;28;20464;-70
2022/07/16 12:02:06;;;;;;;4.00;3.30;;;27.90;42.70;;;;;;5000187;28;20553;-68
2022/07/16 12:04:38;;;;;;;3.60;3.10;;;28.30;43.00;;;;;;5020493;28;20443;-69
2022/07/16 12:07:08;;;;;;;3.67;3.37;;;28.90;43.10;;;;;;5018805;28;20470;-70
2022/07/16 12:09:37;;;;;;;3.13;2.73;;;29.80;43.00;;;;;;5016944;28;20948;-71
2022/07/16 12:12:05;;;;;;;3.97;2.90;;;31.20;41.50;;;;;;5018417;28;20479;-69
2022/07/16 12:15:04;;;;;;;6.47;2.93;;;33.20;39.40;;;;;;5021226;28;20518;-72
2022/07/16 12:17:36;;;;;;;2.90;2.70;;;35.60;36.00;;;;;;4968408;28;20413;-70
2022/07/16 12:20:16;;;;;;;3.67;3.00;;;37.10;35.10;;;;;;5016587;28;20402;-68
2022/07/16 12:22:56;;;;;;;2.83;2.50;;;38.60;32.80;;;;;;5019901;28;20482;-71
2022/07/16 12:25:27;;;;;;;3.90;2.87;;;39.80;31.40;;;;;;5017925;28;20479;-69
2022/07/16 12:27:59;;;;;;;4.10;2.87;;;40.50;30.10;;;;;;5018214;28;20521;-69
2022/07/16 12:30:42;;;;;;;3.90;2.67;;;41.20;29.50;;;;;;5019745;28;20430;-73
2022/07/16 12:33:15;;;;;;;3.33;3.00;;;41.70;29.50;;;;;;5004724;28;20544;-72
2022/07/16 12:35:47;;;;;;;2.87;2.67;;;42.20;29.60;;;;;;5008084;28;21491;-71
2022/07/16 12:38:36;;;;;;;3.03;2.73;;;42.70;29.10;;;;;;5024431;28;20434;-72
2022/07/16 12:41:02;;;;;;;2.70;2.50;;;43.10;28.90;;;;;;5023604;28;20438;-70
2022/07/16 12:43:27;;;;;;;2.80;2.60;;;42.80;28.70;;;;;;5025542;28;20458;-71
2022/07/16 12:45:53;;;;;;;3.27;2.40;;;42.90;29.00;;;;;;5024998;28;20307;-73
2022/07/16 12:48:19;;;;;;;2.80;2.60;;;43.10;29.10;;;;;;5019981;28;20204;-72
2022/07/16 12:50:44;;;;;;;3.80;2.87;;;42.80;28.50;;;;;;5021041;28;20176;-72
2022/07/16 12:53:10;;;;;;;3.00;2.53;;;43.00;28.30;;;;;;5022604;28;20337;-72